createdAt,value
2022-10-17T00:01:45.807Z,96074.13
2022-10-17T00:04:13.493Z,96075.50
2022-10-17T00:06:41.304Z,96070.06
2022-10-17T00:09:09.611Z,96072.47
2022-10-17T00:11:37.380Z,96074.91
2022-10-17T00:14:06.509Z,96075.72
2022-10-17T00:16:37.561Z,96080.06
2022-10-17T00:19:06.520Z,96074.38
2022-10-17T00:21:34.655Z,96080.88
2022-10-17T00:24:02.472Z,96083.03
2022-10-17T00:26:30.488Z,96080.06
2022-10-17T00:28:58.303Z,96077.03
2022-10-17T00:31:27.368Z,96081.34
2022-10-17T00:33:55.000Z,96081.06
2022-10-17T00:36:24.573Z,96077.78
2022-10-17T00:38:55.333Z,96073.97
2022-10-17T00:41:25.280Z,96079.66
2022-10-17T00:43:56.079Z,96079.06
2022-10-17T00:46:25.854Z,96082.28
2022-10-17T00:48:56.786Z,96086.63
2022-10-17T00:51:32.144Z,96085.53
2022-10-17T00:54:00.702Z,96083.34
2022-10-17T00:56:28.786Z,96084.94
2022-10-17T00:58:56.886Z,96089.50
2022-10-17T01:01:24.709Z,96099.19
2022-10-17T01:03:52.742Z,96095.13
2022-10-17T01:06:21.786Z,96103.19
2022-10-17T01:08:49.647Z,96098.34
2022-10-17T01:11:31.159Z,96099.16
2022-10-17T01:14:05.956Z,96102.94
2022-10-17T01:16:44.895Z,96098.28
2022-10-17T01:19:41.997Z,96099.72
2022-10-17T01:22:20.545Z,96095.38
2022-10-17T01:24:54.126Z,96098.28
2022-10-17T01:27:39.697Z,96101.50
2022-10-17T01:30:26.811Z,96097.16
2022-10-17T01:32:59.883Z,96097.16
2022-10-17T01:35:35.137Z,96098.22
2022-10-17T01:38:10.411Z,96086.81
2022-10-17T01:40:43.156Z,96086.25
2022-10-17T01:43:16.165Z,96083.78
2022-10-17T01:45:50.281Z,96080.81
2022-10-17T01:48:23.620Z,96082.97
2022-10-17T01:50:54.657Z,96086.16
2022-10-17T01:53:29.343Z,96084.53
2022-10-17T01:56:00.833Z,96083.66
2022-10-17T01:58:31.740Z,96085.53
2022-10-17T02:01:01.826Z,96082.78
2022-10-17T02:03:34.408Z,96089.31
2022-10-17T02:06:02.718Z,96090.88
2022-10-17T02:08:43.537Z,96090.38
2022-10-17T02:11:15.704Z,96088.69
2022-10-17T02:13:57.873Z,96085.69
2022-10-17T02:16:36.680Z,96095.41
2022-10-17T02:19:24.409Z,96091.50
2022-10-17T02:22:02.016Z,96088.56
2022-10-17T02:24:39.167Z,96083.66
2022-10-17T02:27:13.017Z,96081.00
2022-10-17T02:29:48.915Z,96079.63
2022-10-17T02:32:22.534Z,96083.97
2022-10-17T02:34:54.557Z,96091.44
2022-10-17T02:37:26.600Z,96088.75
2022-10-17T02:39:56.595Z,96091.72
2022-10-17T02:42:26.069Z,96086.88
2022-10-17T02:44:56.010Z,96087.66
2022-10-17T02:47:28.274Z,96094.38
2022-10-17T02:49:58.455Z,96091.69
2022-10-17T02:52:30.910Z,96081.38
2022-10-17T02:55:04.206Z,96088.66
2022-10-17T02:57:38.197Z,96088.84
2022-10-17T03:00:09.928Z,96086.16
2022-10-17T03:02:41.658Z,96086.66
2022-10-17T03:05:11.758Z,96087.47
2022-10-17T03:07:39.710Z,96088.00
2022-10-17T03:10:07.953Z,96088.00
2022-10-17T03:12:35.597Z,96091.72
2022-10-17T03:15:03.323Z,96093.03
2022-10-17T03:17:31.064Z,96098.94
2022-10-17T03:19:58.921Z,96094.31
2022-10-17T03:22:28.286Z,96092.09
2022-10-17T03:24:56.220Z,96094.75
2022-10-17T03:27:23.948Z,96096.31
2022-10-17T03:29:51.610Z,96094.38
2022-10-17T03:32:19.246Z,96100.28
2022-10-17T03:34:46.882Z,96103.47
2022-10-17T03:37:14.545Z,96100.22
2022-10-17T03:39:43.549Z,96104.88
2022-10-17T03:42:11.237Z,96113.78
2022-10-17T03:44:38.864Z,96104.06
2022-10-17T03:47:09.199Z,96103.22
2022-10-17T03:49:39.537Z,96105.69
2022-10-17T03:52:07.298Z,96112.66
2022-10-17T03:54:34.993Z,96115.34
2022-10-17T03:57:04.055Z,96107.75
2022-10-17T03:59:31.803Z,96109.13
2022-10-17T04:01:59.564Z,96106.19
2022-10-17T04:04:27.445Z,96101.78
2022-10-17T04:06:55.141Z,96104.22
2022-10-17T04:09:22.834Z,96105.59
2022-10-17T04:11:50.585Z,96114.78
2022-10-17T04:14:19.635Z,96115.84
2022-10-17T04:16:47.370Z,96114.41
2022-10-17T04:19:15.114Z,96116.28
2022-10-17T04:21:42.828Z,96112.44
2022-10-17T04:24:12.666Z,96114.25
2022-10-17T04:26:40.327Z,96119.84
2022-10-17T04:29:08.030Z,96127.97
2022-10-17T04:31:37.109Z,96123.63
2022-10-17T04:34:04.825Z,96121.22
2022-10-17T04:36:32.540Z,96118.28
2022-10-17T04:39:01.734Z,96129.88
2022-10-17T04:41:29.461Z,96124.72
2022-10-17T04:43:57.113Z,96125.38
2022-10-17T04:46:24.813Z,96129.97
2022-10-17T04:48:55.012Z,96133.47
2022-10-17T04:51:24.628Z,96138.31
2022-10-17T04:53:54.260Z,96137.16
2022-10-17T04:56:24.170Z,96134.97
2022-10-17T04:58:51.938Z,96134.59
2022-10-17T05:01:21.245Z,96144.22
2022-10-17T05:03:49.601Z,96139.84
2022-10-17T05:06:21.857Z,96143.91
2022-10-17T05:08:50.323Z,96147.59
2022-10-17T05:11:23.190Z,96149.50
2022-10-17T05:13:52.639Z,96152.75
2022-10-17T05:16:20.649Z,96147.53
2022-10-17T05:18:52.810Z,96149.97
2022-10-17T05:21:23.563Z,96154.31
2022-10-17T05:23:51.689Z,96151.53
2022-10-17T05:26:19.848Z,96149.81
2022-10-17T05:28:47.917Z,96154.22
2022-10-17T05:31:15.931Z,96154.94
2022-10-17T05:33:43.608Z,96156.53
2022-10-17T05:36:11.814Z,96168.63
2022-10-17T05:38:40.795Z,96164.53
2022-10-17T05:41:08.417Z,96169.69
2022-10-17T05:43:36.106Z,96172.97
2022-10-17T05:46:05.582Z,96177.44
2022-10-17T05:48:33.272Z,96181.22
2022-10-17T05:51:02.347Z,96186.13
2022-10-17T05:53:32.356Z,96181.22
2022-10-17T05:56:03.818Z,96184.25
2022-10-17T05:58:49.357Z,96193.97
2022-10-17T06:01:18.549Z,96190.69
2022-10-17T06:03:46.198Z,96195.75
2022-10-17T06:06:15.068Z,96203.63
2022-10-17T06:08:43.212Z,96208.28
2022-10-17T06:11:12.949Z,96210.16
2022-10-17T06:13:41.043Z,96211.31
2022-10-17T06:16:08.962Z,96214.06
2022-10-17T06:18:36.765Z,96213.09
2022-10-17T06:21:05.797Z,96205.34
2022-10-17T06:23:33.861Z,96205.09
2022-10-17T06:26:01.775Z,96206.25
2022-10-17T06:28:31.269Z,96211.94
2022-10-17T06:30:59.392Z,96207.94
2022-10-17T06:33:27.225Z,96210.06
2022-10-17T06:35:55.963Z,96209.09
2022-10-17T06:38:24.026Z,96210.97
2022-10-17T06:40:51.894Z,96209.41
2022-10-17T06:43:20.670Z,96219.53
2022-10-17T06:45:50.525Z,96223.69
2022-10-17T06:48:18.540Z,96223.59
2022-10-17T06:50:46.239Z,96226.41
2022-10-17T06:53:13.972Z,96230.50
2022-10-17T06:55:42.834Z,96235.75
2022-10-17T06:58:10.543Z,96237.22
2022-10-17T07:00:38.328Z,96237.06
2022-10-17T07:03:07.438Z,96238.91
2022-10-17T07:05:35.082Z,96250.72
2022-10-17T07:08:02.976Z,96246.59
2022-10-17T07:10:30.651Z,96248.66
2022-10-17T07:12:58.328Z,96246.91
2022-10-17T07:15:25.999Z,96248.41
2022-10-17T07:17:53.656Z,96253.41
2022-10-17T07:20:22.696Z,96246.81
2022-10-17T07:22:50.321Z,96245.53
2022-10-17T07:25:18.120Z,96251.31
2022-10-17T07:27:45.798Z,96255.47
2022-10-17T07:30:13.655Z,96252.06
2022-10-17T07:32:41.398Z,96258.41
2022-10-17T07:35:09.758Z,96258.00
2022-10-17T07:37:39.549Z,96259.47
2022-10-17T07:40:09.069Z,96262.31
2022-10-17T07:45:06.491Z,96259.50
2022-10-17T07:47:35.734Z,96256.94
2022-10-17T07:50:03.601Z,96252.72
2022-10-17T07:52:31.857Z,96252.88
2022-10-17T07:55:01.387Z,96248.56
2022-10-17T07:57:29.082Z,96249.63
2022-10-17T07:59:56.780Z,96237.06
2022-10-17T08:02:26.121Z,96236.13
2022-10-17T08:04:54.623Z,96241.31
2022-10-17T08:07:28.386Z,96239.94
2022-10-17T08:09:57.634Z,96245.81
2022-10-17T08:12:27.782Z,96234.56
2022-10-17T08:14:56.071Z,96226.94
2022-10-17T08:17:24.166Z,96236.50
2022-10-17T08:19:51.836Z,96235.88
2022-10-17T08:22:19.556Z,96230.81
2022-10-17T08:24:47.263Z,96234.31
2022-10-17T08:27:15.070Z,96221.63
2022-10-17T08:29:48.320Z,96224.56
2022-10-17T08:32:16.037Z,96230.53
2022-10-17T08:34:43.676Z,96236.50
2022-10-17T08:37:13.451Z,96229.16
2022-10-17T08:39:41.634Z,96235.31
2022-10-17T08:42:32.247Z,96227.31
2022-10-17T08:45:14.681Z,96212.16
2022-10-17T08:47:46.039Z,96224.25
2022-10-17T08:50:19.235Z,96218.84
2022-10-17T08:52:51.294Z,96219.94
2022-10-17T08:55:23.955Z,96212.09
2022-10-17T08:57:51.579Z,96220.72
2022-10-17T09:00:22.383Z,96225.63
2022-10-17T09:03:01.743Z,96223.25
2022-10-17T09:05:41.137Z,96227.00
2022-10-17T09:08:21.809Z,96217.28
2022-10-17T09:10:57.805Z,96220.97
2022-10-17T09:13:39.298Z,96219.69
2022-10-17T09:16:31.035Z,96220.28
2022-10-17T09:19:03.905Z,96226.25
2022-10-17T09:21:44.176Z,96225.28
2022-10-17T09:24:17.297Z,96225.25
2022-10-17T09:26:46.795Z,96221.09
2022-10-17T09:29:22.422Z,96220.63
2022-10-17T09:31:59.570Z,96229.47
2022-10-17T09:34:30.223Z,96228.94
2022-10-17T09:37:00.003Z,96225.59
2022-10-17T09:39:31.803Z,96227.03
2022-10-17T09:42:01.238Z,96225.50
2022-10-17T09:44:32.342Z,96216.13
2022-10-17T09:47:16.312Z,96224.09
2022-10-17T09:49:45.953Z,96219.50
2022-10-17T09:52:16.055Z,96224.69
2022-10-17T09:54:47.184Z,96217.91
2022-10-17T09:57:16.100Z,96224.91
2022-10-17T09:59:46.743Z,96229.09
2022-10-17T10:02:21.369Z,96224.63
2022-10-17T10:05:05.163Z,96221.97
2022-10-17T10:07:36.441Z,96225.28
2022-10-17T10:10:06.801Z,96235.75
2022-10-17T10:12:36.591Z,96227.13
2022-10-17T10:15:34.891Z,96235.28
2022-10-17T10:18:04.086Z,96234.47
2022-10-17T10:20:34.695Z,96236.91
2022-10-17T10:23:13.405Z,96239.44
2022-10-17T10:25:52.981Z,96240.78
2022-10-17T10:28:21.577Z,96232.13
2022-10-17T10:30:52.346Z,96228.66
2022-10-17T10:33:23.263Z,96236.94
2022-10-17T10:35:57.535Z,96231.91
2022-10-17T10:38:25.544Z,96228.47
2022-10-17T10:40:56.622Z,96231.16
2022-10-17T10:43:32.414Z,96236.75
2022-10-17T10:46:01.188Z,96229.63
2022-10-17T10:48:35.260Z,96236.53
2022-10-17T10:51:08.665Z,96239.75
2022-10-17T10:53:45.355Z,96235.41
2022-10-17T10:56:18.830Z,96229.69
2022-10-17T10:58:55.308Z,96226.22
2022-10-17T11:01:30.842Z,96224.19
2022-10-17T11:04:13.223Z,96227.41
2022-10-17T11:06:45.284Z,96219.28
2022-10-17T11:09:24.538Z,96231.50
2022-10-17T11:11:59.164Z,96222.50
2022-10-17T11:14:39.278Z,96228.00
2022-10-17T11:17:17.307Z,96223.41
2022-10-17T11:19:56.414Z,96213.97
2022-10-17T11:22:29.533Z,96213.16
2022-10-17T11:25:01.591Z,96210.75
2022-10-17T11:27:30.717Z,96212.56
2022-10-17T11:29:59.557Z,96212.25
2022-10-17T11:32:32.751Z,96213.66
2022-10-17T11:35:06.788Z,96201.53
2022-10-17T11:37:40.784Z,96207.69
2022-10-17T11:40:20.378Z,96203.44
2022-10-17T11:42:58.164Z,96206.69
2022-10-17T11:45:30.453Z,96205.84
2022-10-17T11:48:05.650Z,96211.78
2022-10-17T11:53:28.383Z,96221.13
2022-10-17T11:55:59.854Z,96209.03
2022-10-17T11:58:43.478Z,96203.13
2022-10-17T12:01:22.754Z,96203.59
2022-10-17T12:04:13.676Z,96197.91
2022-10-17T12:06:56.194Z,96206.97
2022-10-17T12:09:31.263Z,96207.53
2022-10-17T12:12:01.332Z,96198.81
2022-10-17T12:14:42.188Z,96204.97
2022-10-17T12:17:29.294Z,96203.88
2022-10-17T12:20:25.220Z,96195.34
2022-10-17T12:22:56.271Z,96196.91
2022-10-17T12:25:29.738Z,96194.22
2022-10-17T12:28:20.691Z,96193.72
2022-10-17T12:30:58.106Z,96183.56
2022-10-17T12:33:32.391Z,96189.97
2022-10-17T12:36:46.719Z,96189.06
2022-10-17T12:39:53.798Z,96187.13
2022-10-17T12:42:47.953Z,96190.94
2022-10-17T12:45:46.221Z,96186.72
2022-10-17T12:48:13.916Z,96191.28
2022-10-17T12:51:34.413Z,96188.47
2022-10-17T12:53:59.403Z,96189.06
2022-10-17T12:56:37.821Z,96189.78
2022-10-17T12:59:14.902Z,96185.19
2022-10-17T13:01:46.495Z,96194.78
2022-10-17T13:04:14.714Z,96192.56
2022-10-17T13:06:48.043Z,96185.84
2022-10-17T13:09:24.714Z,96183.47
2022-10-17T13:11:53.859Z,96184.97
2022-10-17T13:14:25.571Z,96184.78
2022-10-17T13:16:55.163Z,96193.91
2022-10-17T13:19:26.463Z,96187.63
2022-10-17T13:21:56.165Z,96190.25
2022-10-17T13:24:29.849Z,96185.72
2022-10-17T13:26:58.142Z,96182.88
2022-10-17T13:29:28.740Z,96186.06
2022-10-17T13:32:01.116Z,96190.31
2022-10-17T13:34:29.675Z,96188.41
2022-10-17T13:37:00.699Z,96184.50
2022-10-17T13:39:45.593Z,96187.13
2022-10-17T13:42:26.172Z,96174.53
2022-10-17T13:44:55.664Z,96165.41
2022-10-17T13:47:25.643Z,96163.56
2022-10-17T13:49:55.475Z,96170.91
2022-10-17T13:52:27.943Z,96174.78
2022-10-17T13:54:56.937Z,96175.59
2022-10-17T13:57:27.242Z,96177.88
2022-10-17T13:59:59.469Z,96171.91
2022-10-17T14:02:29.846Z,96173.66
2022-10-17T14:05:19.010Z,96166.22
2022-10-17T14:08:10.471Z,96165.28
2022-10-17T14:10:41.266Z,96166.72
2022-10-17T14:13:20.356Z,96177.09
2022-10-17T14:15:50.365Z,96177.13
2022-10-17T14:18:21.765Z,96175.97
2022-10-17T14:21:33.968Z,96182.41
2022-10-17T14:23:42.055Z,96173.53
2022-10-17T14:26:16.232Z,96186.53
2022-10-17T14:28:46.812Z,96185.69
2022-10-17T14:31:30.290Z,96191.50
2022-10-17T14:33:58.859Z,96200.19
2022-10-17T14:36:39.500Z,96196.50
2022-10-17T14:39:17.004Z,96195.47
2022-10-17T14:41:46.916Z,96194.38
2022-10-17T14:44:21.854Z,96198.31
2022-10-17T14:46:55.332Z,96195.59
2022-10-17T14:49:29.448Z,96205.31
2022-10-17T14:52:38.972Z,96197.84
2022-10-17T14:55:25.271Z,96208.94
2022-10-17T14:57:53.212Z,96206.13
2022-10-17T15:00:22.815Z,96205.75
2022-10-17T15:02:53.982Z,96205.75
2022-10-17T15:05:23.525Z,96213.16
2022-10-17T15:07:51.923Z,96210.78
2022-10-17T15:10:29.508Z,96201.91
2022-10-17T15:12:59.392Z,96208.16
2022-10-17T15:15:32.993Z,96215.28
2022-10-17T15:18:03.051Z,96207.22
2022-10-17T15:20:31.220Z,96220.72
2022-10-17T15:23:00.811Z,96221.53
2022-10-17T15:25:29.646Z,96224.00
2022-10-17T15:27:58.201Z,96228.72
2022-10-17T15:30:27.909Z,96225.34
2022-10-17T15:32:55.800Z,96236.75
2022-10-17T15:35:25.706Z,96227.03
2022-10-17T15:37:53.677Z,96234.53
2022-10-17T15:40:23.674Z,96239.50
2022-10-17T15:42:51.604Z,96238.63
2022-10-17T15:45:21.970Z,96233.09
2022-10-17T15:47:52.806Z,96234.69
2022-10-17T15:50:21.725Z,96241.94
2022-10-17T15:52:52.194Z,96246.03
2022-10-17T15:55:20.428Z,96244.78
2022-10-17T15:57:49.811Z,96251.28
2022-10-17T16:00:20.727Z,96256.47
2022-10-17T16:02:49.367Z,96253.16
2022-10-17T16:05:19.125Z,96257.69
2022-10-17T16:07:47.759Z,96265.91
2022-10-17T16:10:17.800Z,96271.84
2022-10-17T16:12:46.762Z,96277.56
2022-10-17T16:15:16.507Z,96279.13
2022-10-17T16:17:44.472Z,96284.78
2022-10-17T16:20:13.879Z,96283.59
2022-10-17T16:22:43.718Z,96285.63
2022-10-17T16:25:20.919Z,96287.44
2022-10-17T16:27:50.459Z,96291.25
2022-10-17T16:30:18.998Z,96289.03
2022-10-17T16:32:46.989Z,96296.78
2022-10-17T16:35:18.436Z,96294.56
2022-10-17T16:37:46.276Z,96305.38
2022-10-17T16:40:14.745Z,96303.47
2022-10-17T16:42:43.870Z,96316.03
2022-10-17T16:45:17.536Z,96310.84
2022-10-17T16:47:45.268Z,96308.94
2022-10-17T16:50:13.033Z,96307.59
2022-10-17T16:52:41.150Z,96318.22
2022-10-17T16:55:09.870Z,96317.03
2022-10-17T16:57:37.875Z,96327.94
2022-10-17T17:00:09.008Z,96329.53
2022-10-17T17:02:36.742Z,96328.06
2022-10-17T17:05:05.150Z,96331.78
2022-10-17T17:07:33.701Z,96332.22
2022-10-17T17:10:01.624Z,96336.19
2022-10-17T17:12:29.553Z,96336.59
2022-10-17T17:14:57.392Z,96336.28
2022-10-17T17:17:44.536Z,96339.66
2022-10-17T17:20:14.554Z,96344.94
2022-10-17T17:22:42.366Z,96348.72
2022-10-17T17:25:10.884Z,96343.28
2022-10-17T17:27:38.728Z,96349.94
2022-10-17T17:30:07.743Z,96353.00
2022-10-17T17:32:37.032Z,96355.25
2022-10-17T17:35:05.298Z,96359.66
2022-10-17T17:37:33.382Z,96367.38
2022-10-17T17:40:01.211Z,96372.38
2022-10-17T17:42:29.110Z,96368.56
2022-10-17T17:44:57.035Z,96373.56
2022-10-17T17:47:24.880Z,96384.81
2022-10-17T17:49:54.044Z,96389.50
2022-10-17T17:52:21.834Z,96380.06
2022-10-17T17:54:49.601Z,96394.63
2022-10-17T17:57:17.457Z,96399.03
2022-10-17T17:59:45.365Z,96399.31
2022-10-17T18:02:13.061Z,96401.28
2022-10-17T18:04:40.775Z,96406.75
2022-10-17T18:07:09.862Z,96403.47
2022-10-17T18:09:37.580Z,96399.69
2022-10-17T18:12:05.852Z,96395.88
2022-10-17T18:14:33.543Z,96393.19
2022-10-17T18:17:01.262Z,96397.31
2022-10-17T18:19:30.165Z,96401.72
2022-10-17T18:21:57.812Z,96399.84
2022-10-17T18:24:26.936Z,96396.31
2022-10-17T18:27:02.220Z,96391.44
2022-10-17T18:29:31.111Z,96401.53
2022-10-17T18:31:59.819Z,96395.06
2022-10-17T18:34:28.326Z,96398.88
2022-10-17T18:36:56.265Z,96402.19
2022-10-17T18:39:24.119Z,96401.38
2022-10-17T18:41:53.172Z,96396.50
2022-10-17T18:44:21.099Z,96406.84
2022-10-17T18:46:49.008Z,96396.00
2022-10-17T18:49:19.439Z,96406.09
2022-10-17T18:51:47.854Z,96403.69
2022-10-17T18:54:20.302Z,96408.03
2022-10-17T18:56:49.970Z,96409.94
2022-10-17T18:59:19.201Z,96413.53
2022-10-17T19:01:47.329Z,96411.91
2022-10-17T19:04:15.399Z,96421.97
2022-10-17T19:06:43.827Z,96416.53
2022-10-17T19:09:13.541Z,96419.50
2022-10-17T19:11:42.054Z,96409.72
2022-10-17T19:14:13.319Z,96413.81
2022-10-17T19:16:44.489Z,96414.34
2022-10-17T19:19:14.656Z,96414.88
2022-10-17T19:21:43.185Z,96414.06
2022-10-17T19:24:14.780Z,96416.50
2022-10-17T19:26:43.938Z,96411.63
2022-10-17T19:29:14.595Z,96417.88
2022-10-17T19:31:44.119Z,96409.16
2022-10-17T19:34:12.760Z,96411.34
2022-10-17T19:36:41.082Z,96418.97
2022-10-17T19:39:11.913Z,96418.72
2022-10-17T19:41:40.979Z,96423.31
2022-10-17T19:44:09.128Z,96417.06
2022-10-17T19:46:36.876Z,96417.06
2022-10-17T19:49:07.303Z,96417.88
2022-10-17T19:51:35.296Z,96416.00
2022-10-17T19:54:03.384Z,96419.25
2022-10-17T19:56:36.742Z,96419.78
2022-10-17T19:59:05.147Z,96417.06
2022-10-17T20:01:35.261Z,96424.66
2022-10-17T20:04:03.186Z,96419.78
2022-10-17T20:06:32.979Z,96424.66
2022-10-17T20:09:01.121Z,96424.94
2022-10-17T20:11:30.475Z,96421.38
2022-10-17T20:13:59.924Z,96421.91
2022-10-17T20:16:30.910Z,96427.63
2022-10-17T20:19:03.788Z,96422.72
2022-10-17T20:21:34.991Z,96421.06
2022-10-17T20:26:39.389Z,96436.78
2022-10-17T20:29:15.639Z,96433.25
2022-10-17T20:31:45.368Z,96434.84
2022-10-17T20:34:15.023Z,96444.66
2022-10-17T20:36:44.614Z,96443.00
2022-10-17T20:39:13.830Z,96448.72
2022-10-17T20:41:42.340Z,96447.38
2022-10-17T20:44:10.218Z,96456.06
2022-10-17T20:46:44.327Z,96456.88
2022-10-17T20:49:19.967Z,96456.34
2022-10-17T20:51:49.222Z,96462.03
2022-10-17T20:54:16.848Z,96459.28
2022-10-17T20:56:44.679Z,96457.13
2022-10-17T20:59:14.331Z,96456.53
2022-10-17T21:01:42.245Z,96445.66
2022-10-17T21:04:40.323Z,96457.31
2022-10-17T21:06:59.944Z,96457.59
2022-10-17T21:09:27.689Z,96449.13
2022-10-17T21:11:56.043Z,96449.66
2022-10-17T21:14:25.142Z,96447.22
2022-10-17T21:16:53.118Z,96450.19
2022-10-17T21:19:21.689Z,96449.09
2022-10-17T21:21:49.340Z,96445.88
2022-10-17T21:24:20.531Z,96449.44
2022-10-17T21:26:55.028Z,96440.19
2022-10-17T21:29:23.451Z,96444.59
2022-10-17T21:31:51.276Z,96444.88
2022-10-17T21:34:20.794Z,96429.69
2022-10-17T21:36:49.127Z,96437.84
2022-10-17T21:39:18.888Z,96449.22
2022-10-17T21:41:46.680Z,96441.88
2022-10-17T21:44:16.630Z,96451.44
2022-10-17T21:46:44.739Z,96447.91
2022-10-17T21:49:14.479Z,96444.91
2022-10-17T21:51:42.982Z,96436.75
2022-10-17T21:54:10.678Z,96438.94
2022-10-17T21:56:39.695Z,96431.34
2022-10-17T21:59:07.843Z,96426.47
2022-10-17T22:01:37.587Z,96425.13
2022-10-17T22:04:07.233Z,96438.41
2022-10-17T22:06:40.525Z,96431.09
2022-10-17T22:09:10.796Z,96431.09
2022-10-17T22:11:40.308Z,96428.09
2022-10-17T22:14:11.814Z,96436.00
2022-10-17T22:16:40.088Z,96437.06
2022-10-17T22:19:09.067Z,96427.31
2022-10-17T22:21:37.830Z,96432.78
2022-10-17T22:24:08.434Z,96426.28
2022-10-17T22:26:38.143Z,96429.03
2022-10-17T22:29:08.972Z,96424.66
2022-10-17T22:31:37.681Z,96424.41
2022-10-17T22:34:06.378Z,96423.59
2022-10-17T22:36:34.707Z,96419.25
2022-10-17T22:39:02.426Z,96409.44
2022-10-17T22:41:30.056Z,96409.72
2022-10-17T22:43:57.783Z,96409.16
2022-10-17T22:46:27.010Z,96410.81
2022-10-17T22:48:54.856Z,96414.66
2022-10-17T22:53:55.727Z,96412.72
2022-10-17T22:56:23.801Z,96410.00
2022-10-17T23:05:00.577Z,96407.56
2022-10-17T23:07:28.800Z,96412.44
2022-10-17T23:09:56.444Z,96407.25
2022-10-17T23:12:24.217Z,96409.47
2022-10-17T23:14:51.949Z,96410.53
2022-10-17T23:17:19.611Z,96407.28
2022-10-17T23:19:47.245Z,96413.25
2022-10-17T23:22:16.218Z,96412.44
2022-10-17T23:24:43.874Z,96406.69
2022-10-17T23:27:11.624Z,96407.22
2022-10-17T23:29:39.268Z,96410.19
2022-10-17T23:32:07.164Z,96411.22
2022-10-17T23:34:34.785Z,96411.47
2022-10-17T23:37:02.435Z,96414.69
2022-10-17T23:39:31.468Z,96404.34
2022-10-17T23:41:59.096Z,96401.03
2022-10-17T23:44:26.744Z,96401.75
2022-10-17T23:46:54.407Z,96406.31
2022-10-17T23:49:22.079Z,96404.34
2022-10-17T23:51:49.719Z,96409.47
2022-10-17T23:54:17.514Z,96414.34
2022-10-17T23:56:46.543Z,96417.00
2022-10-17T23:59:14.252Z,96421.34
